Terminal Aerodrome Forecast
Issued by NWS

Home | Current Version | Previous Version | Text Only | Print | Product List | Glossary On
Versions: 1 2 3 4 5 6 7 8 9 10 11 12 13 14 15 16 17 18 19
000
FTUS41 KBOX 241123
TAFACK
TAF
KACK 241123Z 2412/2512 22009KT 5SM BR SCT150
     FM242100 20010G22KT P6SM SCT100
     FM250300 19010G17KT P6SM BKN008
     FM250600 18008KT 5SM BR SCT020
     FM250800 17008KT 3SM BR BKN020=

USA.gov is the U.S. government's official web portal to all federal, state and local government web resources and services.